Time;durP1;ratioP1;P1;durP2;ratioP2;P2;SDS_P1;SDS_P2;PMS_P1;PMS_P2;Temp;Humidity;BMP_temperature;BMP_pressure;BME280_temperature;BME280_humidity;BME280_pressure;Samples;Min_cycle;Max_cycle;Signal;HPM_P1;HPM_P2
2023/11/07 00:00:10;;;;;;;0.40;0.40;;;;;;;9.62;97.69;97330.66;5024043;28;20065;-64
2023/11/07 00:02:37;;;;;;;0.45;0.45;;;;;;;9.66;97.63;97322.47;5025570;28;20508;-63
2023/11/07 00:05:04;;;;;;;0.40;0.40;;;;;;;9.62;98.29;97325.13;5025985;28;20436;-64
2023/11/07 00:07:31;;;;;;;0.50;0.50;;;;;;;9.68;97.84;97318.16;5025585;28;20143;-64
2023/11/07 00:09:58;;;;;;;0.40;0.40;;;;;;;9.70;97.65;97310.31;5027452;28;20082;-65
2023/11/07 00:12:25;;;;;;;0.50;0.50;;;;;;;9.66;97.26;97303.88;5044208;28;20053;-63
2023/11/07 00:14:51;;;;;;;0.40;0.40;;;;;;;9.32;95.90;97249.31;5045384;28;20060;-63
2023/11/07 00:17:20;;;;;;;0.40;0.40;;;;;;;9.76;95.08;97325.47;5045205;28;20092;-65
2023/11/07 00:19:47;;;;;;;0.50;0.50;;;;;;;9.66;96.00;97326.00;5045542;28;20071;-64
2023/11/07 00:22:14;;;;;;;0.40;0.40;;;;;;;9.72;96.49;97335.63;5045740;28;20084;-63
2023/11/07 00:24:41;;;;;;;0.50;0.50;;;;;;;9.64;96.05;97339.38;5045372;28;20055;-63
2023/11/07 00:27:08;;;;;;;0.50;0.50;;;;;;;9.59;95.76;97345.19;5043765;28;20053;-63
2023/11/07 00:29:34;;;;;;;0.40;0.40;;;;;;;8.87;95.30;97263.53;5044895;28;20041;-65
2023/11/07 00:32:01;;;;;;;0.50;0.50;;;;;;;9.44;94.77;97357.03;5043151;28;20464;-64
2023/11/07 00:34:28;;;;;;;0.50;0.50;;;;;;;9.37;95.12;97348.56;5043486;28;20526;-64
2023/11/07 00:36:55;;;;;;;0.40;0.40;;;;;;;9.36;94.61;97349.72;5043411;28;20048;-64
2023/11/07 00:39:21;;;;;;;0.40;0.40;;;;;;;9.29;94.11;97359.78;5044802;28;20061;-64
2023/11/07 00:41:48;;;;;;;0.40;0.40;;;;;;;9.20;94.80;97354.41;5044876;28;20061;-65
2023/11/07 00:44:15;;;;;;;0.40;0.40;;;;;;;9.13;95.32;97359.75;5044884;28;20077;-63
2023/11/07 00:46:42;;;;;;;0.40;0.40;;;;;;;9.02;96.38;97356.72;5045062;28;20053;-63
2023/11/07 00:49:09;;;;;;;0.40;0.40;;;;;;;9.13;97.46;97351.47;5043502;28;20080;-64
2023/11/07 00:51:36;;;;;;;0.40;0.40;;;;;;;9.14;97.44;97353.06;5044826;28;20136;-64
2023/11/07 00:54:02;;;;;;;0.40;0.40;;;;;;;9.21;96.71;97358.81;5043217;28;20499;-63
2023/11/07 00:56:29;;;;;;;0.40;0.40;;;;;;;9.16;97.74;97345.22;5043509;28;20534;-64
2023/11/07 00:58:56;;;;;;;0.40;0.40;;;;;;;8.67;97.95;97256.28;5044414;28;20130;-63
2023/11/07 01:01:23;;;;;;;0.40;0.40;;;;;;;9.22;98.76;97363.16;5044140;28;20057;-64
2023/11/07 01:03:49;;;;;;;0.40;0.40;;;;;;;9.21;99.37;97347.75;5044092;28;20053;-63
2023/11/07 01:06:16;;;;;;;0.40;0.40;;;;;;;9.04;100.00;97342.53;5044606;28;20475;-64
2023/11/07 01:08:43;;;;;;;0.50;0.50;;;;;;;9.13;99.28;97326.59;5044400;28;20618;-63
2023/11/07 01:11:10;;;;;;;0.40;0.40;;;;;;;9.24;99.51;97349.78;5044521;28;20131;-64
2023/11/07 01:13:38;;;;;;;0.40;0.40;;;;;;;8.98;98.83;97311.59;5044500;28;20423;-63
2023/11/07 01:16:05;;;;;;;0.43;0.43;;;;;;;9.27;98.26;97354.63;5042524;28;20049;-63
2023/11/07 01:18:32;;;;;;;0.40;0.40;;;;;;;9.23;98.73;97356.50;5043096;28;20051;-63
2023/11/07 01:20:59;;;;;;;0.45;0.45;;;;;;;9.22;98.72;97349.34;5044257;28;20052;-63
2023/11/07 01:23:25;;;;;;;0.40;0.40;;;;;;;9.25;98.00;97351.41;5043137;28;20454;-65
2023/11/07 01:25:52;;;;;;;0.40;0.40;;;;;;;9.23;98.52;97356.50;5044815;28;20060;-63
2023/11/07 01:28:21;;;;;;;0.40;0.40;;;;;;;9.23;98.58;97356.50;5044181;28;20045;-64
2023/11/07 01:30:48;;;;;;;0.40;0.40;;;;;;;9.17;97.89;97366.16;5028959;28;20136;-64
2023/11/07 01:33:16;;;;;;;0.40;0.40;;;;;;;8.57;97.38;97283.59;5024091;28;20050;-64
2023/11/07 01:35:43;;;;;;;0.40;0.40;;;;;;;9.04;97.89;97364.66;5022532;28;20053;-63
2023/11/07 01:38:10;;;;;;;0.40;0.40;;;;;;;9.08;97.53;97365.53;5023806;28;20553;-64
2023/11/07 01:40:37;;;;;;;0.40;0.40;;;;;;;9.04;97.55;97370.19;5024442;28;20507;-64
2023/11/07 01:43:14;;;;;;;0.40;0.40;;;;;;;8.96;98.98;97373.91;5024188;28;20049;-65
2023/11/07 01:45:41;;;;;;;0.50;0.50;;;;;;;8.92;99.82;97368.25;5018114;28;20057;-64
2023/11/07 01:48:12;;;;;;;0.40;0.40;;;;;;;8.99;100.00;97373.19;5034583;28;20065;-64
2023/11/07 01:50:40;;;;;;;0.40;0.40;;;;;;;8.86;98.91;97341.22;5023834;28;20528;-64
2023/11/07 01:53:08;;;;;;;0.40;0.40;;;;;;;8.93;97.56;97369.84;5023798;28;20132;-64
2023/11/07 01:55:37;;;;;;;0.40;0.40;;;;;;;8.92;96.34;97372.97;5024131;28;20046;-65
2023/11/07 01:58:06;;;;;;;0.40;0.40;;;;;;;8.70;96.98;97362.47;5024232;28;20184;-65
2023/11/07 02:00:34;;;;;;;0.40;0.40;;;;;;;8.82;97.28;97379.00;5023893;28;20166;-64
2023/11/07 02:03:01;;;;;;;0.40;0.40;;;;;;;8.83;97.67;97391.66;5024307;28;20056;-63
2023/11/07 02:05:30;;;;;;;0.40;0.40;;;;;;;8.80;98.41;97389.59;5023992;28;20057;-64
2023/11/07 02:07:58;;;;;;;0.40;0.40;;;;;;;8.87;99.37;97387.03;5028741;28;20050;-66
2023/11/07 02:10:25;;;;;;;0.40;0.40;;;;;;;8.93;99.40;97396.69;5023845;28;20083;-65
2023/11/07 02:12:53;;;;;;;0.40;0.40;;;;;;;8.85;99.75;97400.41;5022218;28;20504;-64
2023/11/07 02:15:22;;;;;;;0.40;0.40;;;;;;;8.77;100.00;97404.13;5024276;28;20504;-64
2023/11/07 02:17:50;;;;;;;0.40;0.40;;;;;;;8.68;99.22;97395.13;5027661;28;20528;-64
2023/11/07 02:20:19;;;;;;;0.40;0.40;;;;;;;8.73;99.97;97403.19;5027512;28;20053;-64
2023/11/07 02:22:48;;;;;;;0.40;0.40;;;;;;;8.74;100.00;97404.81;5027586;28;20081;-65
2023/11/07 02:25:16;;;;;;;0.40;0.40;;;;;;;8.73;100.00;97403.19;5027649;28;20053;-64
2023/11/07 02:27:43;;;;;;;0.40;0.40;;;;;;;8.65;100.00;97409.66;5027156;28;20080;-65
2023/11/07 02:30:12;;;;;;;0.40;0.40;;;;;;;8.37;100.00;97390.28;5034017;28;20048;-64
2023/11/07 02:32:40;;;;;;;0.40;0.40;;;;;;;8.38;99.78;97407.63;5047276;28;20165;-64
2023/11/07 02:35:08;;;;;;;0.40;0.40;;;;;;;8.10;99.03;97365.31;5046826;28;20059;-65
2023/11/07 02:37:35;;;;;;;0.40;0.40;;;;;;;7.99;98.36;97375.22;5047463;28;20049;-64
2023/11/07 02:40:03;;;;;;;0.40;0.40;;;;;;;8.22;98.51;97420.50;5047290;28;20128;-65
2023/11/07 02:42:30;;;;;;;0.40;0.40;;;;;;;7.96;98.65;97373.16;5045756;28;20057;-64
2023/11/07 02:44:57;;;;;;;0.40;0.40;;;;;;;8.36;99.02;97423.75;5047177;28;20053;-65
2023/11/07 02:47:25;;;;;;;0.47;0.47;;;;;;;8.52;100.00;97425.44;5046998;28;20056;-64
2023/11/07 02:49:52;;;;;;;0.40;0.40;;;;;;;8.53;100.00;97427.06;5047042;28;20143;-65
2023/11/07 02:52:20;;;;;;;0.40;0.40;;;;;;;8.68;100.00;97423.56;5046787;28;20432;-64
2023/11/07 02:54:48;;;;;;;0.40;0.40;;;;;;;8.60;100.00;97420.97;5046549;28;20080;-66
2023/11/07 02:57:15;;;;;;;0.40;0.40;;;;;;;8.33;100.00;97372.00;5047031;28;20538;-66
2023/11/07 02:59:49;;;;;;;0.40;0.40;;;;;;;8.63;100.00;97414.75;5045306;28;20517;-64
2023/11/07 03:02:17;;;;;;;0.40;0.40;;;;;;;8.68;100.00;97417.22;5046717;28;20055;-66
2023/11/07 03:04:44;;;;;;;0.40;0.40;;;;;;;8.63;100.00;97425.78;5037845;28;20045;-65
2023/11/07 03:07:11;;;;;;;0.40;0.40;;;;;;;8.16;100.00;97361.16;5061153;28;20051;-64
2023/11/07 03:09:37;;;;;;;0.40;0.40;;;;;;;8.33;100.00;97394.09;5046518;28;20139;-63
2023/11/07 03:12:04;;;;;;;0.40;0.40;;;;;;;8.45;100.00;97427.19;5046623;28;20060;-63
2023/11/07 03:14:32;;;;;;;0.40;0.40;;;;;;;8.52;100.00;97424.66;5046822;28;20061;-64
2023/11/07 03:16:59;;;;;;;0.40;0.40;;;;;;;8.52;100.00;97424.66;5046350;28;20624;-64
2023/11/07 03:19:25;;;;;;;0.32;0.32;;;;;;;8.24;100.00;97390.63;5046603;28;20128;-64
2023/11/07 03:21:52;;;;;;;0.40;0.40;;;;;;;8.62;100.00;97424.16;5044831;28;20420;-65
2023/11/07 03:24:19;;;;;;;0.40;0.40;;;;;;;8.56;100.00;97431.88;5044637;28;20461;-64
2023/11/07 03:26:46;;;;;;;0.40;0.40;;;;;;;7.56;99.45;97299.41;5045703;28;20558;-64
2023/11/07 03:29:13;;;;;;;0.40;0.40;;;;;;;8.26;99.92;97385.56;5044590;28;20045;-64
2023/11/07 03:31:40;;;;;;;0.40;0.40;;;;;;;8.61;100.00;97425.31;5025912;28;20520;-64
2023/11/07 03:34:09;;;;;;;0.40;0.40;;;;;;;8.25;99.59;97387.53;5026299;28;20555;-64
2023/11/07 03:36:36;;;;;;;0.40;0.40;;;;;;;8.31;100.00;97401.91;5024916;28;20093;-64
2023/11/07 03:39:03;;;;;;;0.40;0.40;;;;;;;8.49;100.00;97430.84;5025585;28;20534;-65
2023/11/07 03:41:30;;;;;;;0.40;0.40;;;;;;;8.57;99.96;97438.19;5044679;28;20052;-65
2023/11/07 03:43:57;;;;;;;0.40;0.40;;;;;;;8.52;99.45;97436.47;5045675;28;20095;-65
2023/11/07 03:46:24;;;;;;;0.40;0.40;;;;;;;7.98;97.55;97346.03;5046117;28;20512;-64
2023/11/07 03:48:52;;;;;;;0.40;0.40;;;;;;;8.49;97.65;97430.84;5045915;28;20053;-65
2023/11/07 03:51:18;;;;;;;0.40;0.40;;;;;;;8.38;99.16;97433.28;5046019;28;20048;-65
2023/11/07 03:53:45;;;;;;;0.40;0.40;;;;;;;8.31;100.00;97435.84;5046243;28;20057;-64
2023/11/07 03:56:12;;;;;;;0.40;0.40;;;;;;;8.30;100.00;97433.41;5045869;28;20115;-64
2023/11/07 03:58:39;;;;;;;0.40;0.40;;;;;;;8.34;100.00;97440.66;5045153;28;20143;-64
2023/11/07 04:01:06;;;;;;;0.40;0.40;;;;;;;8.39;100.00;97447.91;5044002;28;20056;-63
2023/11/07 04:03:32;;;;;;;0.40;0.40;;;;;;;8.45;100.00;97441.00;5044163;28;20539;-63
2023/11/07 04:05:59;;;;;;;0.40;0.40;;;;;;;8.33;100.00;97441.00;5045716;28;20056;-64
2023/11/07 04:08:26;;;;;;;0.40;0.40;;;;;;;8.19;100.00;97426.72;5045694;28;20053;-64
2023/11/07 04:10:53;;;;;;;0.40;0.40;;;;;;;8.23;100.00;97433.19;5045918;28;20055;-64
2023/11/07 04:13:20;;;;;;;0.40;0.40;;;;;;;7.35;100.00;97293.19;5045400;28;20171;-64
2023/11/07 04:15:47;;;;;;;0.40;0.40;;;;;;;8.23;100.00;97444.22;5051704;28;20091;-64
2023/11/07 04:18:13;;;;;;;0.40;0.40;;;;;;;8.21;100.00;97429.94;5043886;28;20045;-64
2023/11/07 04:20:42;;;;;;;0.38;0.38;;;;;;;8.36;100.00;97437.56;5045730;28;20059;-64
2023/11/07 04:23:09;;;;;;;0.40;0.40;;;;;;;8.44;100.00;97442.94;5045302;28;20059;-65
2023/11/07 04:25:36;;;;;;;0.40;0.40;;;;;;;8.49;100.00;97450.16;5045183;28;20056;-63
2023/11/07 04:28:03;;;;;;;0.40;0.40;;;;;;;8.49;100.00;97442.69;5045070;28;20499;-64
2023/11/07 04:30:30;;;;;;;0.40;0.40;;;;;;;8.56;100.00;97447.66;5054039;28;20052;-65
2023/11/07 04:32:57;;;;;;;0.40;0.40;;;;;;;8.61;100.00;97441.88;5065241;28;20515;-64
2023/11/07 04:35:25;;;;;;;0.40;0.40;;;;;;;8.16;100.00;97388.75;5065027;28;20496;-63
2023/11/07 04:37:53;;;;;;;0.40;0.40;;;;;;;8.00;100.00;97363.06;5063566;28;20063;-65
2023/11/07 04:40:20;;;;;;;0.40;0.40;;;;;;;8.67;100.00;97448.78;5064586;28;20048;-64
2023/11/07 04:42:47;;;;;;;0.40;0.40;;;;;;;8.61;100.00;97450.16;5064901;28;20048;-64
2023/11/07 04:45:14;;;;;;;0.40;0.40;;;;;;;8.68;100.00;97444.84;5064470;28;20059;-66
2023/11/07 04:47:42;;;;;;;0.40;0.40;;;;;;;8.40;100.00;97410.84;5064619;28;20058;-64
2023/11/07 04:50:11;;;;;;;0.40;0.40;;;;;;;8.27;100.00;97406.50;5064336;28;20052;-64
2023/11/07 04:52:38;;;;;;;0.40;0.40;;;;;;;8.63;100.00;97458.91;5064486;28;20101;-65
2023/11/07 04:55:06;;;;;;;0.40;0.40;;;;;;;8.56;100.00;97475.25;5063136;28;20052;-64
2023/11/07 04:57:32;;;;;;;0.40;0.40;;;;;;;8.49;100.00;97464.78;5064185;28;20055;-64
2023/11/07 04:59:59;;;;;;;0.40;0.40;;;;;;;8.53;100.00;97467.66;5064176;28;20055;-64
2023/11/07 05:02:26;;;;;;;0.40;0.40;;;;;;;8.51;100.00;97472.72;5064401;28;20044;-64
2023/11/07 05:04:53;;;;;;;0.40;0.40;;;;;;;8.50;99.24;97476.66;5063069;28;20044;-64
2023/11/07 05:07:22;;;;;;;0.40;0.40;;;;;;;8.32;99.14;97486.28;5064571;28;20485;-65
2023/11/07 05:09:52;;;;;;;0.40;0.40;;;;;;;8.34;99.82;97500.56;5063884;28;20052;-64
2023/11/07 05:12:19;;;;;;;0.40;0.40;;;;;;;8.32;100.00;97491.81;5063885;28;20048;-64
2023/11/07 05:14:46;;;;;;;0.40;0.40;;;;;;;8.33;100.00;97487.94;5063846;28;20151;-66
2023/11/07 05:17:12;;;;;;;0.40;0.40;;;;;;;8.40;100.00;97491.72;5057920;28;20061;-65
2023/11/07 05:19:39;;;;;;;0.40;0.40;;;;;;;8.49;100.00;97491.56;5044314;28;20060;-66
2023/11/07 05:22:06;;;;;;;0.40;0.40;;;;;;;8.54;100.00;97496.88;5042653;28;20534;-65
2023/11/07 05:24:32;;;;;;;0.40;0.40;;;;;;;8.60;100.00;97509.31;5044085;28;20061;-65
2023/11/07 05:26:59;;;;;;;0.40;0.40;;;;;;;8.63;100.00;97503.09;5043731;28;20053;-65
2023/11/07 05:29:26;;;;;;;0.40;0.40;;;;;;;8.63;100.00;97489.28;5044175;28;20139;-65
2023/11/07 05:31:52;;;;;;;0.40;0.40;;;;;;;8.80;100.00;97502.84;5059735;28;20057;-66
2023/11/07 05:34:19;;;;;;;0.40;0.40;;;;;;;8.82;100.00;97519.88;5063543;28;20517;-63
2023/11/07 05:36:46;;;;;;;0.40;0.40;;;;;;;8.37;100.00;97419.81;5061229;28;20056;-64
2023/11/07 05:39:15;;;;;;;0.40;0.40;;;;;;;8.55;100.00;97437.75;5063178;28;20056;-63
2023/11/07 05:41:43;;;;;;;0.50;0.50;;;;;;;9.17;100.00;97513.47;5061833;28;20058;-64
2023/11/07 05:44:09;;;;;;;0.40;0.40;;;;;;;9.32;100.00;97513.88;5062943;28;20053;-64
2023/11/07 05:46:36;;;;;;;0.40;0.40;;;;;;;9.47;100.00;97516.69;5061643;28;20067;-65
2023/11/07 05:49:03;;;;;;;0.50;0.50;;;;;;;9.60;100.00;97526.56;5063119;28;20167;-63
2023/11/07 05:51:30;;;;;;;0.50;0.50;;;;;;;9.40;100.00;97450.16;5062097;28;20056;-64
2023/11/07 05:53:56;;;;;;;0.50;0.50;;;;;;;9.65;99.53;97501.44;5062586;28;20048;-65
2023/11/07 05:56:23;;;;;;;0.50;0.50;;;;;;;10.03;100.00;97523.81;5064137;28;20728;-64
2023/11/07 05:58:50;;;;;;;0.40;0.40;;;;;;;9.99;99.68;97503.53;5062476;28;20450;-64
2023/11/07 06:01:17;;;;;;;0.43;0.43;;;;;;;10.09;98.66;97499.47;5063942;28;20163;-65
2023/11/07 06:03:44;;;;;;;0.40;0.40;;;;;;;10.03;97.87;97479.53;5063476;28;20049;-65
2023/11/07 06:06:12;;;;;;;0.40;0.40;;;;;;;10.03;97.78;97467.66;5061919;28;20059;-64
2023/11/07 06:08:39;;;;;;;0.43;0.43;;;;;;;10.32;95.98;97476.34;5062469;28;20045;-64
2023/11/07 06:11:06;;;;;;;0.45;0.45;;;;;;;10.73;96.00;97535.13;5061976;28;20056;-64
2023/11/07 06:13:32;;;;;;;0.50;0.50;;;;;;;10.53;96.56;97482.41;5062178;28;20052;-65
2023/11/07 06:16:03;;;;;;;0.50;0.50;;;;;;;11.03;95.99;97552.84;5062805;28;20500;-66
2023/11/07 06:18:30;;;;;;;0.50;0.50;;;;;;;11.12;94.31;97534.88;5063250;28;20052;-66
2023/11/07 06:20:58;;;;;;;0.50;0.50;;;;;;;11.32;94.10;97546.78;5062406;28;20110;-67
2023/11/07 06:23:24;;;;;;;0.50;0.50;;;;;;;11.49;92.57;97549.16;5061248;28;20163;-65
2023/11/07 06:25:51;;;;;;;0.50;0.50;;;;;;;11.63;92.52;97544.72;5060468;28;20528;-66
2023/11/07 06:28:18;;;;;;;0.50;0.50;;;;;;;11.77;91.67;97552.53;5060688;28;20051;-67
2023/11/07 06:30:45;;;;;;;0.50;0.50;;;;;;;11.90;90.69;97546.47;5059992;28;20676;-67
2023/11/07 06:33:12;;;;;;;0.50;0.50;;;;;;;12.14;89.77;97553.66;5061430;28;20055;-67
2023/11/07 06:35:39;;;;;;;0.50;0.50;;;;;;;12.24;90.35;97555.84;5061051;28;20135;-67
2023/11/07 06:38:07;;;;;;;0.50;0.50;;;;;;;12.35;87.20;97534.63;5060373;28;20135;-67
2023/11/07 06:40:34;;;;;;;0.60;0.60;;;;;;;12.64;87.07;97550.63;5060558;28;20487;-67
2023/11/07 06:43:03;;;;;;;0.50;0.50;;;;;;;11.68;87.08;97399.34;5049349;28;20048;-66
2023/11/07 06:45:30;;;;;;;0.50;0.50;;;;;;;12.49;86.41;97467.41;5061571;28;20057;-66
2023/11/07 06:47:57;;;;;;;0.55;0.55;;;;;;;13.16;85.84;97553.50;5061666;28;20537;-65
2023/11/07 06:50:23;;;;;;;0.60;0.60;;;;;;;13.11;85.05;97534.34;5062666;28;20316;-63
2023/11/07 06:52:52;;;;;;;0.50;0.50;;;;;;;13.02;84.59;97469.84;5062237;28;20052;-69
2023/11/07 06:55:24;;;;;;;0.60;0.60;;;;;;;13.74;84.43;97547.53;5061530;28;20058;-67
2023/11/07 06:57:52;;;;;;;0.57;0.57;;;;;;;13.77;82.47;97538.44;5061655;28;20147;-62
2023/11/07 07:00:26;;;;;;;0.55;0.55;;;;;;;14.07;82.79;97553.13;5061937;28;20064;-62
2023/11/07 07:02:56;;;;;;;;;;;;;;;14.22;81.51;97549.28;5063071;28;20138;-62
2023/11/07 07:05:25;;;;;;;0.60;0.60;;;;;;;14.20;81.03;97554.44;5063368;28;20752;-64
2023/11/07 07:07:51;;;;;;;0.60;0.60;;;;;;;13.77;79.36;97461.25;5064568;28;20102;-61
2023/11/07 07:10:18;;;;;;;0.60;0.60;;;;;;;14.44;78.67;97546.38;5042696;28;20063;-65
2023/11/07 07:12:45;;;;;;;0.70;0.70;;;;;;;14.74;77.87;97547.06;5053472;28;20056;-62
2023/11/07 07:15:12;;;;;;;0.60;0.60;;;;;;;14.49;76.16;97481.09;5061985;28;20163;-66
2023/11/07 07:17:39;;;;;;;0.60;0.60;;;;;;;15.13;75.64;97547.34;5053456;28;20054;-65
2023/11/07 07:20:11;;;;;;;0.70;0.70;;;;;;;15.40;72.15;97543.19;5065256;28;20058;-65
2023/11/07 07:22:43;;;;;;;0.70;0.70;;;;;;;15.47;72.83;97543.25;5065618;28;20149;-64
2023/11/07 07:25:20;;;;;;;0.60;0.60;;;;;;;15.58;71.55;97546.91;5065047;28;20265;-67
2023/11/07 07:27:47;;;;;;;0.70;0.70;;;;;;;15.62;72.05;97544.91;5064567;28;20187;-68
2023/11/07 07:30:20;;;;;;;0.60;0.60;;;;;;;15.42;70.15;97496.16;5064553;28;20051;-66
2023/11/07 07:32:50;;;;;;;0.65;0.65;;;;;;;15.82;69.75;97551.78;5063351;28;20185;-67
2023/11/07 07:35:20;;;;;;;0.70;0.70;;;;;;;15.78;70.41;97503.50;5063962;28;20057;-64
2023/11/07 07:37:51;;;;;;;0.70;0.70;;;;;;;15.97;69.44;97533.91;5061314;28;20105;-62
2023/11/07 07:40:25;;;;;;;0.70;0.70;;;;;;;16.04;66.85;97482.84;5062487;28;20044;-63
2023/11/07 07:42:54;;;;;;;0.70;0.70;;;;;;;16.54;66.26;97523.69;5061534;28;20055;-73
2023/11/07 07:45:23;;;;;;;0.70;0.70;;;;;;;16.49;65.66;97494.13;5077145;28;20134;-67
2023/11/07 07:47:50;;;;;;;0.70;0.70;;;;;;;16.90;66.20;97535.72;5063041;28;20053;-64
2023/11/07 07:50:18;;;;;;;0.80;0.80;;;;;;;16.98;64.95;97537.31;5064039;28;20078;-62
2023/11/07 07:52:48;;;;;;;0.80;0.80;;;;;;;16.37;65.04;97413.41;5060928;28;20527;-65
2023/11/07 07:55:19;;;;;;;0.70;0.70;;;;;;;16.72;65.96;97462.16;5062336;28;20149;-63
2023/11/07 07:58:00;;;;;;;0.70;0.70;;;;;;;16.24;65.44;97364.66;5062684;28;20521;-64
2023/11/07 08:00:30;;;;;;;0.80;0.80;;;;;;;17.22;65.04;97514.09;5063966;28;20044;-63
2023/11/07 08:02:58;;;;;;;0.70;0.70;;;;;;;16.43;64.96;97381.03;5061785;28;20106;-65
2023/11/07 08:05:27;;;;;;;0.70;0.70;;;;;;;17.37;64.03;97488.44;5063989;28;20099;-62
2023/11/07 08:07:54;;;;;;;0.80;0.80;;;;;;;17.41;63.48;97471.66;5064539;28;20049;-61
2023/11/07 08:10:22;;;;;;;0.80;0.80;;;;;;;17.22;62.72;97424.50;5064239;28;20063;-63
2023/11/07 08:12:50;;;;;;;0.70;0.70;;;;;;;17.88;61.12;97507.53;5063891;28;20056;-62
2023/11/07 08:15:18;;;;;;;0.70;0.70;;;;;;;18.04;61.55;97519.06;5063457;28;20049;-61
2023/11/07 08:17:46;;;;;;;0.70;0.70;;;;;;;18.07;60.81;97521.88;5058556;28;20044;-60
2023/11/07 08:20:19;;;;;;;0.70;0.70;;;;;;;18.32;59.46;97527.34;5061118;28;20494;-61
2023/11/07 08:22:47;;;;;;;0.80;0.80;;;;;;;18.37;59.71;97490.44;5061700;28;20435;-69
2023/11/07 08:25:18;;;;;;;0.70;0.70;;;;;;;18.62;60.97;97512.78;5061204;28;20326;-61
2023/11/07 08:27:45;;;;;;;0.80;0.80;;;;;;;18.72;58.58;97523.91;5062791;28;20048;-65
2023/11/07 08:30:14;;;;;;;0.70;0.70;;;;;;;18.97;56.94;97513.28;5059997;28;20178;-64
2023/11/07 08:32:42;;;;;;;0.70;0.70;;;;;;;19.12;56.55;97514.78;5056137;28;20084;-63
2023/11/07 08:35:11;;;;;;;0.70;0.70;;;;;;;19.19;56.51;97522.34;5060167;28;20056;-68
2023/11/07 08:37:39;;;;;;;0.80;0.80;;;;;;;18.77;54.71;97464.53;5058720;28;20580;-70
2023/11/07 08:40:09;;;;;;;0.80;0.80;;;;;;;18.37;55.39;97462.41;5062565;28;20056;-67
2023/11/07 08:42:43;;;;;;;0.77;0.77;;;;;;;18.98;56.88;97503.66;5061160;28;20529;-65
2023/11/07 08:45:15;;;;;;;0.80;0.80;;;;;;;19.28;56.99;97520.66;5061010;28;20517;-67
2023/11/07 08:47:43;;;;;;;0.80;0.80;;;;;;;19.60;54.31;97514.72;5058391;28;20105;-61
2023/11/07 08:50:12;;;;;;;0.75;0.75;;;;;;;19.52;54.85;97521.66;5059855;28;20052;-67
2023/11/07 08:52:40;;;;;;;0.65;0.65;;;;;;;19.44;55.28;97515.28;5055477;28;20047;-64
2023/11/07 08:55:08;;;;;;;0.80;0.80;;;;;;;19.42;54.97;97519.72;5058973;28;20060;-69
2023/11/07 08:57:41;;;;;;;0.80;0.80;;;;;;;19.56;54.15;97522.41;5053253;28;20515;-65
2023/11/07 09:00:12;;;;;;;0.80;0.80;;;;;;;19.54;54.09;97480.66;5057416;28;20060;-65
2023/11/07 09:02:41;;;;;;;0.80;0.80;;;;;;;19.79;54.55;97499.25;5063464;28;20056;-65
2023/11/07 09:05:08;;;;;;;0.80;0.80;;;;;;;19.43;51.98;97422.97;5043849;28;20159;-63
2023/11/07 09:07:35;;;;;;;0.88;0.88;;;;;;;20.24;52.92;97514.78;5057568;28;20536;-64
2023/11/07 09:10:02;;;;;;;0.80;0.80;;;;;;;20.03;51.45;97453.16;5048643;28;20049;-62
2023/11/07 09:12:29;;;;;;;0.80;0.80;;;;;;;20.37;50.30;97482.84;5053612;28;20052;-63
2023/11/07 09:14:56;;;;;;;0.85;0.85;;;;;;;20.75;50.67;97508.81;5052411;28;20750;-63
2023/11/07 09:17:23;;;;;;;0.77;0.77;;;;;;;20.71;51.78;97499.59;5046875;28;20049;-68
2023/11/07 09:19:50;;;;;;;0.80;0.80;;;;;;;19.38;51.18;97263.28;5058299;28;20053;-60
2023/11/07 09:22:17;;;;;;;0.85;0.85;;;;;;;20.76;50.49;97493.50;5058270;28;20079;-63
2023/11/07 09:24:44;;;;;;;0.82;0.82;;;;;;;20.83;52.09;97487.78;5061716;28;20189;-65
2023/11/07 09:27:11;;;;;;;0.90;0.90;;;;;;;20.77;51.03;97489.47;5059775;28;20048;-61
2023/11/07 09:29:38;;;;;;;0.80;0.80;;;;;;;20.52;50.08;97486.22;5062020;28;20048;-62
2023/11/07 09:32:07;;;;;;;0.88;0.88;;;;;;;20.62;50.12;97482.47;5060879;28;20040;-63
2023/11/07 09:34:39;;;;;;;0.80;0.80;;;;;;;20.84;49.20;97483.72;5062449;28;20123;-63
2023/11/07 09:37:11;;;;;;;0.90;0.90;;;;;;;20.91;49.50;97456.22;5061984;28;20862;-60
2023/11/07 09:39:40;;;;;;;0.90;0.90;;;;;;;20.76;50.14;97454.88;5060852;28;20074;-62
2023/11/07 09:42:08;;;;;;;0.90;0.90;;;;;;;21.01;49.50;97465.75;5059911;28;20094;-63
2023/11/07 09:44:39;;;;;;;0.90;0.90;;;;;;;20.89;50.22;97464.31;5061718;28;20076;-60
2023/11/07 09:47:06;;;;;;;0.90;0.90;;;;;;;20.83;50.50;97459.59;5060772;28;20063;-62
2023/11/07 09:49:33;;;;;;;0.88;0.88;;;;;;;21.08;49.98;97457.19;5062152;28;20471;-62
2023/11/07 09:52:04;;;;;;;0.90;0.90;;;;;;;20.96;49.71;97452.16;5060670;28;20601;-61
2023/11/07 09:54:33;;;;;;;0.80;0.80;;;;;;;21.08;49.03;97391.59;5063300;28;20089;-64
2023/11/07 09:57:08;;;;;;;0.90;0.90;;;;;;;21.03;49.62;97421.06;5062701;28;20545;-61
2023/11/07 09:59:53;;;;;;;0.90;0.90;;;;;;;19.73;49.05;97166.41;5061248;28;20535;-61
2023/11/07 10:02:22;;;;;;;0.90;0.90;;;;;;;21.49;48.92;97423.81;5062786;28;20064;-61
2023/11/07 10:04:50;;;;;;;0.98;0.98;;;;;;;20.51;49.46;97357.97;5062022;28;20049;-62
2023/11/07 10:07:17;;;;;;;1.00;1.00;;;;;;;21.19;49.24;97403.44;5061027;28;20063;-62
2023/11/07 10:09:46;;;;;;;0.88;0.88;;;;;;;21.35;50.05;97418.44;5059935;28;20055;-62
2023/11/07 10:12:17;;;;;;;1.00;1.00;;;;;;;21.36;49.69;97374.94;5059714;28;20147;-61
2023/11/07 10:14:45;;;;;;;0.90;0.90;;;;;;;20.97;50.51;97346.72;5061268;28;20451;-63
2023/11/07 10:17:20;;;;;;;0.88;0.88;;;;;;;21.04;51.59;97373.97;5060596;28;20055;-62
2023/11/07 10:20:04;;;;;;;0.90;0.90;;;;;;;20.98;51.19;97393.38;5061125;28;20102;-61
2023/11/07 10:22:53;;;;;;;0.90;0.90;;;;;;;21.32;51.67;97384.69;5061103;28;20537;-63
2023/11/07 10:25:27;;;;;;;0.80;0.80;;;;;;;20.95;51.79;97385.75;5062615;28;20049;-63
2023/11/07 10:28:04;;;;;;;0.90;0.90;;;;;;;20.81;51.75;97383.19;5061235;28;20049;-61
2023/11/07 10:30:48;;;;;;;0.88;0.88;;;;;;;20.61;52.53;97368.28;5063174;28;20083;-62
2023/11/07 10:33:29;;;;;;;0.80;0.80;;;;;;;19.94;52.46;97268.06;5061419;28;20049;-62
2023/11/07 10:36:01;;;;;;;0.85;0.85;;;;;;;20.64;52.63;97367.41;5042960;28;20068;-62
2023/11/07 10:38:30;;;;;;;0.90;0.90;;;;;;;20.53;52.17;97324.56;5062189;28;20059;-62
2023/11/07 10:40:58;;;;;;;0.80;0.80;;;;;;;21.10;51.40;97367.41;5066877;28;20094;-61
2023/11/07 10:43:35;;;;;;;0.80;0.80;;;;;;;20.92;51.71;97362.06;5065568;28;20534;-61
2023/11/07 10:46:08;;;;;;;0.80;0.80;;;;;;;21.27;51.17;97360.63;5066982;28;20057;-62
2023/11/07 10:48:39;;;;;;;0.90;0.90;;;;;;;20.92;52.13;97367.72;5065403;28;20044;-63
2023/11/07 10:51:12;;;;;;;0.80;0.80;;;;;;;21.20;51.14;97360.75;5067454;28;20044;-62
2023/11/07 10:53:43;;;;;;;0.80;0.80;;;;;;;20.42;51.54;97243.13;5066724;28;20055;-61
2023/11/07 10:56:20;;;;;;;0.90;0.90;;;;;;;20.85;51.66;97310.69;5065447;28;20084;-63
2023/11/07 10:58:56;;;;;;;0.80;0.80;;;;;;;21.48;51.62;97348.91;5065325;28;20135;-63
2023/11/07 11:01:26;;;;;;;0.88;0.88;;;;;;;21.03;51.42;97288.66;5066747;28;20485;-62
2023/11/07 11:03:54;;;;;;;0.90;0.90;;;;;;;21.76;50.75;97348.34;5066035;28;20408;-62
2023/11/07 11:06:23;;;;;;;0.93;0.93;;;;;;;20.88;51.23;97236.63;5065774;28;20052;-62
2023/11/07 11:08:56;;;;;;;0.90;0.90;;;;;;;21.61;50.97;97332.91;5064137;28;20084;-63
2023/11/07 11:11:24;;;;;;;0.90;0.90;;;;;;;21.62;51.15;97328.88;5064682;28;20055;-63
2023/11/07 11:13:55;;;;;;;0.90;0.90;;;;;;;21.45;51.98;97338.50;5064699;28;20055;-63
2023/11/07 11:16:23;;;;;;;0.88;0.88;;;;;;;21.63;52.03;97327.63;5063247;28;20056;-63
2023/11/07 11:18:59;;;;;;;0.90;0.90;;;;;;;21.85;50.74;97305.41;5064398;28;20049;-62
2023/11/07 11:21:51;;;;;;;0.90;0.90;;;;;;;21.83;50.39;97274.81;5052760;28;20080;-62
2023/11/07 11:24:34;;;;;;;0.85;0.85;;;;;;;21.56;51.84;97310.88;5059376;28;20060;-65
2023/11/07 11:27:17;;;;;;;1.00;1.00;;;;;;;21.79;50.82;97296.69;5048911;28;20094;-61
2023/11/07 11:29:46;;;;;;;0.90;0.90;;;;;;;22.11;50.11;97291.06;5065053;28;20052;-63
2023/11/07 11:32:27;;;;;;;0.90;0.90;;;;;;;22.29;50.23;97302.72;5060542;28;20071;-62
2023/11/07 11:35:15;;;;;;;0.85;0.85;;;;;;;22.49;49.33;97300.59;5055681;28;20538;-62
2023/11/07 11:38:21;;;;;;;1.00;1.00;;;;;;;22.39;50.49;97300.88;5062113;28;20045;-63
2023/11/07 11:40:56;;;;;;;1.00;1.00;;;;;;;21.78;50.17;97216.13;5063559;28;20064;-63
2023/11/07 11:43:28;;;;;;;0.90;0.90;;;;;;;22.44;49.22;97287.03;5065182;28;20053;-63